createdAt,value
2024-03-12T00:00:17.646Z,8.14
2024-03-12T00:02:48.213Z,8.08
2024-03-12T00:05:16.208Z,8.18
2024-03-12T00:07:44.053Z,8.21
2024-03-12T00:10:18.373Z,8.22
2024-03-12T00:12:49.083Z,8.21
2024-03-12T00:15:18.270Z,8.15
2024-03-12T00:17:45.670Z,8.17
2024-03-12T00:20:19.046Z,8.20
2024-03-12T00:22:48.354Z,8.18
2024-03-12T00:25:20.284Z,8.15
2024-03-12T00:27:47.715Z,8.24
2024-03-12T00:30:16.152Z,8.15
2024-03-12T00:32:43.177Z,8.19
2024-03-12T00:35:11.533Z,8.10
2024-03-12T00:37:42.418Z,8.17
2024-03-12T00:40:13.430Z,8.12
2024-03-12T00:42:40.739Z,8.08
2024-03-12T00:45:12.400Z,8.13
2024-03-12T00:47:39.889Z,8.11
2024-03-12T00:50:08.674Z,8.16
2024-03-12T00:52:37.537Z,8.19
2024-03-12T00:55:10.524Z,8.21
2024-03-12T00:57:39.617Z,8.23
2024-03-12T01:00:26.243Z,8.20
2024-03-12T01:02:59.255Z,8.11
2024-03-12T01:05:27.485Z,8.18
2024-03-12T01:07:54.942Z,8.18
2024-03-12T01:10:22.374Z,8.16
2024-03-12T01:12:50.201Z,8.19
2024-03-12T01:15:19.147Z,8.13
2024-03-12T01:17:47.255Z,8.16
2024-03-12T01:20:17.561Z,8.06
2024-03-12T01:22:44.760Z,8.07
2024-03-12T01:25:11.500Z,8.07
2024-03-12T01:27:38.029Z,8.10
2024-03-12T01:30:09.244Z,8.15
2024-03-12T01:32:36.001Z,8.08
2024-03-12T01:35:09.891Z,8.07
2024-03-12T01:37:37.787Z,8.08
2024-03-12T01:40:20.428Z,8.11
2024-03-12T01:42:49.888Z,8.10
2024-03-12T01:45:17.837Z,8.08
2024-03-12T01:47:46.764Z,8.04
2024-03-12T01:50:13.999Z,8.08
2024-03-12T01:52:40.602Z,8.11
2024-03-12T01:55:07.554Z,8.07
2024-03-12T01:57:34.529Z,8.10
2024-03-12T02:00:01.887Z,8.14
2024-03-12T02:02:30.447Z,8.17
2024-03-12T02:04:57.631Z,8.04
2024-03-12T02:07:24.782Z,8.07
2024-03-12T02:09:51.373Z,8.14
2024-03-12T02:12:17.861Z,8.11
2024-03-12T02:14:44.262Z,8.11
2024-03-12T02:17:12.197Z,8.07
2024-03-12T02:19:38.722Z,8.08
2024-03-12T02:22:06.377Z,8.05
2024-03-12T02:24:33.824Z,8.07
2024-03-12T02:27:01.059Z,8.00
2024-03-12T02:29:27.491Z,8.06
2024-03-12T02:31:53.893Z,8.09
2024-03-12T02:34:20.668Z,8.09
2024-03-12T02:36:47.551Z,8.09
2024-03-12T02:39:15.594Z,8.11
2024-03-12T02:41:42.328Z,8.10
2024-03-12T02:44:08.700Z,8.12
2024-03-12T02:46:35.452Z,8.05
2024-03-12T02:49:03.922Z,8.07
2024-03-12T02:51:33.376Z,8.08
2024-03-12T02:54:00.891Z,8.13
2024-03-12T02:56:27.384Z,8.06
2024-03-12T02:58:53.910Z,8.09
2024-03-12T03:01:20.429Z,8.06
2024-03-12T03:03:46.872Z,8.06
2024-03-12T03:06:13.361Z,7.96
2024-03-12T03:08:39.891Z,8.00
2024-03-12T03:11:06.497Z,8.06
2024-03-12T03:13:33.013Z,8.04
2024-03-12T03:15:59.585Z,8.02
2024-03-12T03:18:28.396Z,8.03
2024-03-12T03:20:54.932Z,8.06
2024-03-12T03:23:21.341Z,7.99
2024-03-12T03:25:47.789Z,7.99
2024-03-12T03:28:15.575Z,7.92
2024-03-12T03:30:43.319Z,7.93
2024-03-12T03:33:10.021Z,7.93
2024-03-12T03:35:36.852Z,7.89
2024-03-12T03:38:03.327Z,7.93
2024-03-12T03:40:29.940Z,7.93
2024-03-12T03:42:57.676Z,7.91
2024-03-12T03:45:24.731Z,7.89
2024-03-12T03:47:51.638Z,7.87
2024-03-12T03:50:18.722Z,7.90
2024-03-12T03:52:45.121Z,7.92
2024-03-12T03:55:11.554Z,7.89
2024-03-12T03:57:38.076Z,7.89
2024-03-12T04:00:14.167Z,7.82
2024-03-12T04:02:41.137Z,7.79
2024-03-12T04:05:08.531Z,7.80
2024-03-12T04:07:34.980Z,7.71
2024-03-12T04:10:01.791Z,7.79
2024-03-12T04:12:28.342Z,7.75
2024-03-12T04:14:54.806Z,7.77
2024-03-12T04:17:23.148Z,7.66
2024-03-12T04:19:49.710Z,7.81
2024-03-12T04:22:20.329Z,7.75
2024-03-12T04:24:47.484Z,7.83
2024-03-12T04:27:16.025Z,7.72
2024-03-12T04:29:43.093Z,7.78
2024-03-12T04:32:10.719Z,7.77
2024-03-12T04:34:38.248Z,7.75
2024-03-12T04:37:05.541Z,7.73
2024-03-12T04:39:32.952Z,7.74
2024-03-12T04:42:06.286Z,7.70
2024-03-12T04:44:33.724Z,7.65
2024-03-12T04:47:00.350Z,7.71
2024-03-12T04:49:27.808Z,7.64
2024-03-12T04:51:54.813Z,7.63
2024-03-12T04:54:21.371Z,7.68
2024-03-12T04:56:51.774Z,7.69
2024-03-12T04:59:18.426Z,7.73
2024-03-12T05:01:46.668Z,7.71
2024-03-12T05:04:18.639Z,7.75
2024-03-12T05:06:49.286Z,7.72
2024-03-12T05:09:18.921Z,7.69
2024-03-12T05:11:46.080Z,7.62
2024-03-12T05:14:12.601Z,7.70
2024-03-12T05:16:39.044Z,7.71
2024-03-12T05:19:05.651Z,7.70
2024-03-12T05:21:32.648Z,7.71
2024-03-12T05:23:59.735Z,7.71
2024-03-12T05:26:30.239Z,7.69
2024-03-12T05:28:59.385Z,7.72
2024-03-12T05:31:38.732Z,7.76
2024-03-12T05:34:17.581Z,7.76
2024-03-12T05:36:49.897Z,7.68
2024-03-12T05:39:48.729Z,7.61
2024-03-12T05:42:33.964Z,7.57
2024-03-12T05:45:18.845Z,7.63
2024-03-12T05:48:03.700Z,7.65
2024-03-12T05:50:30.406Z,7.67
2024-03-12T05:52:57.577Z,7.68
2024-03-12T05:55:24.047Z,7.58
2024-03-12T05:57:50.520Z,7.64
2024-03-12T06:00:18.673Z,7.59
2024-03-12T06:02:45.678Z,7.61
2024-03-12T06:05:15.108Z,7.65
2024-03-12T06:07:42.705Z,7.61
2024-03-12T06:10:10.282Z,7.62
2024-03-12T06:12:37.637Z,7.62
2024-03-12T06:15:07.525Z,7.61
2024-03-12T06:17:34.208Z,7.75
2024-03-12T06:20:01.027Z,7.77
2024-03-12T06:22:27.923Z,7.73
2024-03-12T06:24:54.803Z,7.65
2024-03-12T06:27:22.066Z,7.74
2024-03-12T06:29:52.441Z,7.82
2024-03-12T06:32:21.998Z,7.65
2024-03-12T06:34:49.472Z,7.68
2024-03-12T06:37:17.961Z,7.68
2024-03-12T06:39:45.754Z,7.68
2024-03-12T06:42:13.490Z,7.71
2024-03-12T06:44:43.699Z,7.78
2024-03-12T06:47:11.529Z,7.71
2024-03-12T06:49:38.581Z,7.68
2024-03-12T06:52:07.669Z,7.64
2024-03-12T06:54:36.468Z,7.62
2024-03-12T06:57:05.487Z,7.68
2024-03-12T06:59:33.984Z,7.68
2024-03-12T07:02:03.929Z,7.74
2024-03-12T07:04:44.340Z,7.75
2024-03-12T07:07:12.504Z,7.74
2024-03-12T07:09:42.205Z,7.77
2024-03-12T07:12:15.114Z,7.73
2024-03-12T07:14:43.431Z,7.70
2024-03-12T07:17:11.329Z,7.79
2024-03-12T07:19:41.409Z,7.77
2024-03-12T07:22:08.484Z,7.71
2024-03-12T07:24:36.486Z,7.75
2024-03-12T07:27:07.027Z,7.81
2024-03-12T07:29:36.402Z,7.60
2024-03-12T07:32:04.960Z,7.65
2024-03-12T07:34:32.405Z,7.65
2024-03-12T07:36:59.640Z,7.60
2024-03-12T07:39:27.889Z,7.62
2024-03-12T07:41:57.685Z,7.67
2024-03-12T07:44:24.113Z,7.70
2024-03-12T07:46:50.761Z,7.73
2024-03-12T07:49:23.954Z,7.64
2024-03-12T07:51:50.898Z,7.55
2024-03-12T07:54:19.891Z,7.64
2024-03-12T07:56:55.216Z,7.61
2024-03-12T07:59:23.659Z,7.56
2024-03-12T08:01:58.525Z,7.59
2024-03-12T08:04:28.142Z,7.65
2024-03-12T08:06:55.266Z,7.62
2024-03-12T08:09:22.332Z,7.63
2024-03-12T08:11:49.472Z,7.68
2024-03-12T08:14:17.219Z,7.77
2024-03-12T08:16:43.712Z,7.82
2024-03-12T08:19:14.308Z,7.84
2024-03-12T08:21:40.998Z,7.86
2024-03-12T08:24:08.894Z,7.90
2024-03-12T08:26:35.366Z,7.98
2024-03-12T08:29:02.092Z,7.92
2024-03-12T08:31:33.315Z,7.93
2024-03-12T08:34:16.983Z,7.95
2024-03-12T08:36:43.812Z,7.99
2024-03-12T08:39:13.433Z,7.91
2024-03-12T08:41:40.869Z,7.95
2024-03-12T08:44:07.680Z,7.99
2024-03-12T08:46:37.981Z,7.82
2024-03-12T08:49:07.334Z,7.84
2024-03-12T08:51:37.912Z,7.94
2024-03-12T08:54:05.395Z,8.03
2024-03-12T08:56:32.826Z,7.99
2024-03-12T08:58:59.402Z,7.95
2024-03-12T09:01:26.323Z,8.03
2024-03-12T09:03:55.705Z,8.13
2024-03-12T09:06:22.268Z,8.17
2024-03-12T09:08:50.691Z,8.19
2024-03-12T09:11:21.576Z,8.13
2024-03-12T09:13:48.532Z,8.15
2024-03-12T09:16:15.266Z,7.99
2024-03-12T09:18:48.695Z,8.03
2024-03-12T09:21:16.486Z,7.98
2024-03-12T09:23:48.707Z,8.03
2024-03-12T09:26:23.942Z,8.00
2024-03-12T09:28:51.362Z,7.99
2024-03-12T09:31:19.907Z,8.06
2024-03-12T09:33:46.662Z,8.09
2024-03-12T09:36:15.291Z,8.13
2024-03-12T09:38:42.496Z,8.02
2024-03-12T09:41:11.657Z,7.99
2024-03-12T09:43:38.722Z,8.06
2024-03-12T09:46:06.390Z,8.09
2024-03-12T09:48:33.937Z,8.16
2024-03-12T09:51:00.585Z,8.10
2024-03-12T09:53:27.548Z,8.21
2024-03-12T09:55:54.921Z,8.19
2024-03-12T09:58:21.487Z,8.22
2024-03-12T10:00:48.307Z,8.22
2024-03-12T10:03:18.252Z,8.11
2024-03-12T10:05:44.692Z,8.23
2024-03-12T10:08:29.472Z,8.24
2024-03-12T10:10:57.701Z,8.18
2024-03-12T10:13:24.989Z,8.27
2024-03-12T10:16:00.938Z,8.27
2024-03-12T10:18:31.264Z,8.21
2024-03-12T10:20:59.607Z,8.29
2024-03-12T10:23:32.849Z,8.22
2024-03-12T10:26:14.124Z,8.29
2024-03-12T10:28:41.271Z,8.15
2024-03-12T10:31:11.447Z,8.17
2024-03-12T10:33:42.094Z,8.16
2024-03-12T10:36:12.617Z,8.19
2024-03-12T10:38:40.836Z,8.19
2024-03-12T10:41:19.517Z,8.28
2024-03-12T10:43:47.985Z,8.21
2024-03-12T10:46:17.485Z,8.06
2024-03-12T10:48:47.354Z,8.10
2024-03-12T10:51:16.656Z,8.07
2024-03-12T10:53:44.776Z,7.99
2024-03-12T10:56:15.237Z,8.11
2024-03-12T10:58:47.949Z,8.13
2024-03-12T11:01:16.185Z,8.33
2024-03-12T11:03:44.110Z,8.36
2024-03-12T11:06:15.064Z,8.40
2024-03-12T11:08:44.428Z,8.36
2024-03-12T11:11:11.301Z,8.48
2024-03-12T11:13:38.045Z,8.52
2024-03-12T11:16:18.621Z,8.57
2024-03-12T11:18:45.841Z,8.67
2024-03-12T11:21:14.425Z,8.77
2024-03-12T11:23:41.561Z,8.93
2024-03-12T11:26:08.231Z,8.78
2024-03-12T11:28:48.458Z,8.68
2024-03-12T11:31:14.989Z,8.71
2024-03-12T11:33:52.758Z,8.69
2024-03-12T11:36:25.363Z,8.76
2024-03-12T11:38:53.234Z,8.74
2024-03-12T11:41:20.635Z,8.71
2024-03-12T11:43:47.256Z,8.71
2024-03-12T11:46:21.895Z,8.69
2024-03-12T11:48:53.021Z,8.61
2024-03-12T11:51:19.787Z,8.57
2024-03-12T11:53:48.184Z,8.62
2024-03-12T11:56:23.700Z,8.69
2024-03-12T11:58:57.569Z,8.72
2024-03-12T12:01:33.206Z,8.83
2024-03-12T12:04:04.730Z,8.80
2024-03-12T12:06:32.864Z,8.84
2024-03-12T12:09:10.646Z,8.93
2024-03-12T12:11:41.545Z,9.01
2024-03-12T12:14:11.808Z,9.05
2024-03-12T12:16:38.604Z,9.07
2024-03-12T12:19:07.182Z,9.05
2024-03-12T12:21:37.140Z,9.30
2024-03-12T12:24:04.973Z,9.20
2024-03-12T12:26:34.457Z,9.31
2024-03-12T12:29:04.628Z,9.20
2024-03-12T12:31:36.532Z,9.37
2024-03-12T12:34:06.237Z,9.34
2024-03-12T12:36:37.378Z,9.37
2024-03-12T12:39:05.883Z,9.42
2024-03-12T12:41:43.958Z,9.83
2024-03-12T12:44:16.296Z,10.66
2024-03-12T12:46:43.993Z,11.16
2024-03-12T12:49:14.186Z,10.81
2024-03-12T12:51:42.497Z,10.64
2024-03-12T12:54:10.449Z,10.59
2024-03-12T12:56:42.603Z,10.66
2024-03-12T12:59:21.100Z,10.91
2024-03-12T13:01:51.221Z,10.55
2024-03-12T13:04:27.816Z,10.37
2024-03-12T13:06:57.072Z,10.22
2024-03-12T13:09:34.884Z,9.94
2024-03-12T13:12:02.974Z,10.04
2024-03-12T13:14:30.031Z,9.83
2024-03-12T13:16:56.559Z,9.87
2024-03-12T13:19:27.409Z,9.69
2024-03-12T13:21:58.999Z,9.66
2024-03-12T13:24:25.660Z,9.69
2024-03-12T13:26:52.223Z,9.74
2024-03-12T13:29:18.780Z,9.63
2024-03-12T13:31:45.472Z,9.70
2024-03-12T13:34:12.057Z,9.80
2024-03-12T13:36:38.639Z,9.89
2024-03-12T13:39:07.117Z,9.78
2024-03-12T13:41:33.807Z,9.93
2024-03-12T13:44:00.273Z,10.03
2024-03-12T13:46:27.443Z,10.36
2024-03-12T13:49:11.944Z,10.45
2024-03-12T13:51:38.898Z,10.37
2024-03-12T13:54:09.235Z,10.21
2024-03-12T13:56:37.475Z,10.27
2024-03-12T13:59:07.443Z,10.31
2024-03-12T14:01:34.416Z,10.23
2024-03-12T14:04:01.441Z,10.20
2024-03-12T14:06:28.913Z,10.20
2024-03-12T14:08:55.939Z,9.99
2024-03-12T14:11:22.539Z,9.87
2024-03-12T14:13:50.915Z,10.00
2024-03-12T14:16:19.878Z,9.91
2024-03-12T14:18:50.757Z,9.91
2024-03-12T14:21:17.984Z,9.81
2024-03-12T14:23:44.588Z,9.97
2024-03-12T14:26:11.072Z,9.96
2024-03-12T14:28:37.550Z,9.83
2024-03-12T14:31:06.899Z,9.82
2024-03-12T14:33:34.122Z,9.70
2024-03-12T14:36:00.754Z,9.83
2024-03-12T14:38:27.148Z,9.85
2024-03-12T14:40:53.574Z,9.82
2024-03-12T14:43:20.391Z,9.78
2024-03-12T14:45:47.889Z,9.92
2024-03-12T14:48:14.845Z,9.76
2024-03-12T14:50:42.094Z,9.81
2024-03-12T14:53:09.084Z,9.85
2024-03-12T14:55:35.864Z,9.93
2024-03-12T14:58:02.595Z,9.87
2024-03-12T15:00:29.885Z,9.82
2024-03-12T15:02:56.849Z,10.01
2024-03-12T15:05:23.322Z,9.86
2024-03-12T15:07:53.870Z,9.88
2024-03-12T15:10:20.404Z,9.91
2024-03-12T15:12:46.988Z,9.97
2024-03-12T15:15:14.473Z,9.94
2024-03-12T15:17:42.734Z,10.11
2024-03-12T15:20:11.557Z,10.07
2024-03-12T15:22:38.601Z,10.10
2024-03-12T15:25:07.868Z,10.14
2024-03-12T15:27:35.474Z,9.96
2024-03-12T15:30:02.349Z,9.94
2024-03-12T15:32:29.079Z,10.05
2024-03-12T15:34:57.581Z,10.05
2024-03-12T15:37:24.193Z,10.02
2024-03-12T15:39:50.789Z,10.04
2024-03-12T15:42:17.374Z,9.92
2024-03-12T15:44:43.824Z,9.85
2024-03-12T15:47:10.309Z,9.79
2024-03-12T15:49:36.724Z,9.79
2024-03-12T15:52:05.889Z,9.75
2024-03-12T15:54:32.409Z,9.74
2024-03-12T15:56:59.702Z,9.75
2024-03-12T15:59:26.274Z,9.74
2024-03-12T16:01:54.734Z,9.78
2024-03-12T16:04:21.549Z,9.81
2024-03-12T16:06:48.124Z,9.71
2024-03-12T16:09:17.835Z,9.76
2024-03-12T16:11:44.796Z,9.73
2024-03-12T16:14:13.228Z,9.71
2024-03-12T16:16:40.648Z,9.75
2024-03-12T16:19:07.986Z,9.83
2024-03-12T16:21:35.426Z,9.74
2024-03-12T16:24:02.380Z,9.74
2024-03-12T16:26:29.543Z,9.71
2024-03-12T16:28:56.068Z,9.78
2024-03-12T16:31:24.579Z,9.65
2024-03-12T16:33:51.170Z,9.68
2024-03-12T16:36:19.082Z,9.67
2024-03-12T16:38:49.054Z,9.65
2024-03-12T16:41:15.702Z,9.60
2024-03-12T16:43:43.373Z,9.61
2024-03-12T16:46:10.859Z,9.64
2024-03-12T16:48:40.933Z,9.62
2024-03-12T16:51:08.388Z,9.58
2024-03-12T16:53:34.992Z,9.57
2024-03-12T16:56:02.111Z,9.53
2024-03-12T16:58:31.645Z,9.55
2024-03-12T17:01:03.451Z,9.59
2024-03-12T17:03:34.177Z,9.66
2024-03-12T17:06:00.976Z,9.54
2024-03-12T17:08:27.785Z,9.55
2024-03-12T17:10:54.754Z,9.60
2024-03-12T17:13:24.865Z,9.49
2024-03-12T17:15:51.691Z,9.52
2024-03-12T17:18:23.338Z,9.49
2024-03-12T17:20:49.926Z,9.57
2024-03-12T17:23:18.156Z,9.57
2024-03-12T17:25:44.757Z,9.59
2024-03-12T17:28:11.737Z,9.61
2024-03-12T17:30:39.017Z,9.63
2024-03-12T17:33:07.442Z,9.59
2024-03-12T17:35:34.620Z,9.57
2024-03-12T17:38:02.680Z,9.54
2024-03-12T17:40:30.070Z,9.50
2024-03-12T17:42:56.886Z,9.46
2024-03-12T17:45:24.928Z,9.43
2024-03-12T17:47:54.267Z,9.58
2024-03-12T17:50:25.532Z,9.53
2024-03-12T17:52:54.612Z,9.56
2024-03-12T17:55:22.724Z,9.52
2024-03-12T17:57:49.520Z,9.53
2024-03-12T18:00:18.824Z,9.49
2024-03-12T18:02:50.110Z,9.51
2024-03-12T18:05:18.379Z,9.54
2024-03-12T18:07:46.968Z,9.51
2024-03-12T18:10:18.539Z,9.50
2024-03-12T18:12:46.443Z,9.49
2024-03-12T18:15:16.162Z,9.46
2024-03-12T18:17:44.386Z,9.45
2024-03-12T18:20:13.451Z,9.39
2024-03-12T18:22:43.371Z,9.46
2024-03-12T18:25:11.229Z,9.33
2024-03-12T18:27:41.283Z,9.31
2024-03-12T18:30:10.915Z,9.31
2024-03-12T18:32:41.281Z,9.28
2024-03-12T18:35:09.446Z,9.20
2024-03-12T18:37:38.916Z,9.25
2024-03-12T18:40:13.194Z,9.18
2024-03-12T18:42:42.005Z,9.20
2024-03-12T18:45:13.535Z,9.12
2024-03-12T18:47:40.850Z,9.10
2024-03-12T18:50:10.822Z,9.15
2024-03-12T18:52:43.140Z,9.11
2024-03-12T18:55:11.269Z,9.06
2024-03-12T18:57:40.676Z,9.15
2024-03-12T19:00:21.402Z,9.14
2024-03-12T19:02:49.354Z,9.11
2024-03-12T19:05:19.406Z,9.18
2024-03-12T19:07:47.263Z,9.13
2024-03-12T19:10:15.384Z,9.15
2024-03-12T19:12:42.656Z,9.18
2024-03-12T19:15:10.807Z,9.13
2024-03-12T19:17:44.270Z,9.10
2024-03-12T19:20:19.377Z,9.06
2024-03-12T19:22:49.277Z,9.09
2024-03-12T19:25:17.747Z,9.08
2024-03-12T19:27:46.326Z,9.07
2024-03-12T19:30:14.952Z,9.02
2024-03-12T19:32:42.308Z,8.99
2024-03-12T19:35:09.562Z,8.95
2024-03-12T19:37:37.916Z,8.96
2024-03-12T19:40:12.453Z,8.92
2024-03-12T19:42:44.900Z,8.91
2024-03-12T19:45:20.925Z,8.92
2024-03-12T19:47:51.233Z,8.97
2024-03-12T19:50:18.974Z,9.01
2024-03-12T19:52:49.657Z,8.91
2024-03-12T19:55:20.758Z,8.89
2024-03-12T19:57:57.202Z,8.90
2024-03-12T20:00:26.889Z,8.88
2024-03-12T20:02:55.692Z,8.84
2024-03-12T20:05:22.329Z,8.94
2024-03-12T20:07:49.372Z,8.88
2024-03-12T20:10:17.379Z,8.95
2024-03-12T20:12:44.785Z,8.86
2024-03-12T20:15:12.771Z,8.81
2024-03-12T20:17:42.983Z,8.82
2024-03-12T20:20:13.837Z,8.71
2024-03-12T20:22:41.373Z,8.80
2024-03-12T20:25:09.641Z,8.76
2024-03-12T20:27:39.335Z,8.75
2024-03-12T20:30:06.530Z,8.76
2024-03-12T20:32:33.207Z,8.72
2024-03-12T20:34:59.757Z,8.75
2024-03-12T20:37:26.283Z,8.74
2024-03-12T20:39:52.902Z,8.71
2024-03-12T20:42:21.195Z,8.62
2024-03-12T20:44:47.643Z,8.61
2024-03-12T20:47:14.723Z,8.56
2024-03-12T20:49:44.566Z,8.67
2024-03-12T20:52:12.468Z,8.62
2024-03-12T20:54:40.906Z,8.66
2024-03-12T20:57:09.719Z,8.62
2024-03-12T20:59:38.528Z,8.57
2024-03-12T21:02:05.237Z,8.57
2024-03-12T21:04:31.857Z,8.61
2024-03-12T21:06:59.087Z,8.55
2024-03-12T21:09:25.633Z,8.57
2024-03-12T21:11:53.360Z,8.54
2024-03-12T21:14:20.252Z,8.63
2024-03-12T21:16:49.723Z,8.57
2024-03-12T21:19:18.135Z,8.58
2024-03-12T21:21:49.783Z,8.65
2024-03-12T21:24:20.150Z,8.58
2024-03-12T21:26:46.652Z,8.57
2024-03-12T21:29:13.908Z,8.56
2024-03-12T21:31:42.276Z,8.55
2024-03-12T21:34:09.081Z,8.50
2024-03-12T21:36:42.471Z,8.56
2024-03-12T21:39:10.009Z,8.53
2024-03-12T21:41:39.364Z,8.44
2024-03-12T21:44:05.998Z,8.50
2024-03-12T21:46:32.500Z,8.46
2024-03-12T21:48:59.453Z,8.46
2024-03-12T21:51:28.063Z,8.47
2024-03-12T21:53:57.967Z,8.46
2024-03-12T21:56:27.801Z,8.54
2024-03-12T21:58:54.227Z,8.52
2024-03-12T22:01:21.723Z,8.40
2024-03-12T22:03:50.171Z,8.42
2024-03-12T22:06:20.443Z,8.38
2024-03-12T22:08:47.453Z,8.40
2024-03-12T22:11:15.013Z,8.48
2024-03-12T22:13:45.442Z,8.48
2024-03-12T22:16:15.830Z,8.45
2024-03-12T22:18:43.415Z,8.45
2024-03-12T22:21:13.506Z,8.50
2024-03-12T22:23:41.307Z,8.44
2024-03-12T22:26:12.400Z,8.34
2024-03-12T22:28:39.265Z,8.39
2024-03-12T22:31:12.367Z,8.30
2024-03-12T22:33:42.726Z,8.22
2024-03-12T22:36:09.327Z,8.31
2024-03-12T22:38:38.822Z,8.29
2024-03-12T22:41:05.935Z,8.39
2024-03-12T22:43:38.750Z,8.26
2024-03-12T22:46:11.282Z,8.26
2024-03-12T22:48:38.478Z,8.18
2024-03-12T22:51:05.653Z,8.29
2024-03-12T22:53:33.040Z,8.22
2024-03-12T22:56:00.007Z,8.36
2024-03-12T22:58:28.292Z,8.31
2024-03-12T23:00:56.035Z,8.35
2024-03-12T23:03:23.651Z,8.25
2024-03-12T23:05:50.362Z,8.26
2024-03-12T23:08:20.370Z,8.29
2024-03-12T23:10:47.625Z,8.33
2024-03-12T23:13:16.851Z,8.38
2024-03-12T23:15:44.211Z,8.50
2024-03-12T23:18:15.253Z,8.33
2024-03-12T23:20:42.017Z,8.39
2024-03-12T23:23:08.710Z,8.36
2024-03-12T23:25:37.205Z,8.35
2024-03-12T23:28:05.101Z,8.26
2024-03-12T23:30:33.961Z,8.27
2024-03-12T23:33:00.984Z,8.29
2024-03-12T23:35:30.916Z,8.36
2024-03-12T23:38:00.064Z,8.27
2024-03-12T23:40:27.162Z,8.30
2024-03-12T23:42:57.108Z,8.32
2024-03-12T23:45:27.410Z,8.31
2024-03-12T23:47:54.062Z,8.30
2024-03-12T23:50:20.605Z,8.35
2024-03-12T23:52:47.156Z,8.37
2024-03-12T23:55:15.085Z,8.32
2024-03-12T23:57:43.574Z,8.31
